createdAt,value
2019-04-06T00:02:15.137Z,47.11
2019-04-06T00:04:43.760Z,47.35
2019-04-06T00:07:12.459Z,47.92
2019-04-06T00:09:41.134Z,48.34
2019-04-06T00:12:09.766Z,48.16
2019-04-06T00:14:38.694Z,52.62
2019-04-06T00:17:07.435Z,50.24
2019-04-06T00:19:36.057Z,49.19
2019-04-06T00:22:04.761Z,53.18
2019-04-06T00:24:33.413Z,51.19
2019-04-06T00:27:02.042Z,50.17
2019-04-06T00:29:30.733Z,49.64
2019-04-06T00:32:01.035Z,49.29
2019-04-06T00:34:29.590Z,48.51
2019-04-06T00:36:58.210Z,47.97
2019-04-06T00:39:26.889Z,48.56
2019-04-06T00:41:55.518Z,48.15
2019-04-06T00:44:24.144Z,48.25
2019-04-06T00:46:52.820Z,48.69
2019-04-06T00:49:21.449Z,49.96
2019-04-06T00:51:50.064Z,50.21
2019-04-06T00:54:18.732Z,50.65
2019-04-06T00:56:47.340Z,51.24
2019-04-06T00:59:15.969Z,50.59
2019-04-06T01:01:44.713Z,50.80
2019-04-06T01:04:13.338Z,49.64
2019-04-06T01:06:41.964Z,49.36
2019-04-06T01:09:10.639Z,49.83
2019-04-06T01:11:39.327Z,49.54
2019-04-06T01:14:07.969Z,50.68
2019-04-06T01:16:36.641Z,51.23
2019-04-06T01:19:05.536Z,50.44
2019-04-06T01:21:34.169Z,50.38
2019-04-06T01:24:02.909Z,49.78
2019-04-06T01:26:31.532Z,49.90
2019-04-06T01:29:00.152Z,49.09
2019-04-06T01:31:28.838Z,49.15
2019-04-06T01:33:59.020Z,49.03
2019-04-06T01:36:27.977Z,49.38
2019-04-06T01:38:56.653Z,48.69
2019-04-06T01:41:25.277Z,48.47
2019-04-06T01:43:53.919Z,48.30
2019-04-06T01:46:22.528Z,48.43
2019-04-06T01:48:50.985Z,48.28
2019-04-06T01:51:19.613Z,49.29
2019-04-06T01:53:48.271Z,49.19
2019-04-06T01:56:18.667Z,49.19
2019-04-06T01:58:47.236Z,49.41
2019-04-06T02:01:20.184Z,49.85
2019-04-06T02:03:48.809Z,50.17
2019-04-06T02:06:17.425Z,50.17
2019-04-06T02:08:46.085Z,49.37
2019-04-06T02:11:14.710Z,48.73
2019-04-06T02:13:43.263Z,49.08
2019-04-06T02:16:11.903Z,49.34
2019-04-06T02:18:40.530Z,49.75
2019-04-06T02:21:09.157Z,49.76
2019-04-06T02:23:37.813Z,49.55
2019-04-06T02:26:06.440Z,49.68
2019-04-06T02:28:35.068Z,50.11
2019-04-06T02:31:11.364Z,50.11
2019-04-06T02:33:57.369Z,50.72
2019-04-06T02:36:33.649Z,51.18
2019-04-06T02:39:03.913Z,50.13
2019-04-06T02:41:37.151Z,49.90
2019-04-06T02:44:05.925Z,49.96
2019-04-06T02:46:34.565Z,49.85
2019-04-06T02:49:03.196Z,48.92
2019-04-06T02:51:31.897Z,48.96
2019-04-06T02:54:00.502Z,49.59
2019-04-06T02:56:44.352Z,50.25
2019-04-06T02:58:59.506Z,50.46
2019-04-06T03:01:28.207Z,51.90
2019-04-06T03:03:56.828Z,51.38
2019-04-06T03:06:25.494Z,51.25
2019-04-06T03:08:54.130Z,50.91
2019-04-06T03:11:22.744Z,51.62
2019-04-06T03:13:51.399Z,50.83
2019-04-06T03:16:20.021Z,50.28
2019-04-06T03:18:48.505Z,49.39
2019-04-06T03:21:17.254Z,49.27
2019-04-06T03:23:51.582Z,49.35
2019-04-06T03:26:16.211Z,49.23
2019-04-06T03:28:45.270Z,52.14
2019-04-06T03:31:13.902Z,52.43
2019-04-06T03:33:42.527Z,51.65
2019-04-06T03:36:11.298Z,50.92
2019-04-06T03:38:39.828Z,50.89
2019-04-06T03:41:08.687Z,51.29
2019-04-06T03:43:37.600Z,51.06
2019-04-06T03:46:06.208Z,50.32
2019-04-06T03:48:34.846Z,50.66
2019-04-06T03:51:03.502Z,50.68
2019-04-06T03:53:32.049Z,50.58
2019-04-06T03:56:00.663Z,50.46
2019-04-06T03:58:29.286Z,49.84
2019-04-06T04:00:57.915Z,49.20
2019-04-06T04:03:26.495Z,49.34
2019-04-06T04:05:55.144Z,50.25
2019-04-06T04:08:23.701Z,49.75
2019-04-06T04:10:52.256Z,50.02
2019-04-06T04:13:21.099Z,50.27
2019-04-06T04:15:49.928Z,50.11
2019-04-06T04:18:18.499Z,49.96
2019-04-06T04:20:47.137Z,49.75
2019-04-06T04:23:15.695Z,49.50
2019-04-06T04:25:44.239Z,49.94
2019-04-06T04:28:13.002Z,49.24
2019-04-06T04:30:41.623Z,50.39
2019-04-06T04:33:10.168Z,51.50
2019-04-06T04:35:38.771Z,51.48
2019-04-06T04:38:07.396Z,54.15
2019-04-06T04:40:35.993Z,53.79
2019-04-06T04:43:04.636Z,53.40
2019-04-06T04:45:33.457Z,52.12
2019-04-06T04:48:02.071Z,52.04
2019-04-06T04:50:30.680Z,51.51
2019-04-06T04:52:59.305Z,52.19
2019-04-06T04:55:27.987Z,52.56
2019-04-06T04:57:56.827Z,53.59
2019-04-06T05:00:25.483Z,53.03
2019-04-06T05:02:54.038Z,51.87
2019-04-06T05:05:22.731Z,51.79
2019-04-06T05:07:51.353Z,52.34
2019-04-06T05:10:19.979Z,53.00
2019-04-06T05:12:48.956Z,51.30
2019-04-06T05:15:23.484Z,53.23
2019-04-06T05:17:51.983Z,53.98
2019-04-06T05:20:20.643Z,53.14
2019-04-06T05:22:49.272Z,52.09
2019-04-06T05:25:17.897Z,51.62
2019-04-06T05:27:52.574Z,51.52
2019-04-06T05:30:17.133Z,54.24
2019-04-06T05:32:45.748Z,55.59
2019-04-06T05:35:14.414Z,55.64
2019-04-06T05:37:43.042Z,56.80
2019-04-06T05:40:11.766Z,55.96
2019-04-06T05:42:40.424Z,54.91
2019-04-06T05:45:09.256Z,55.66
2019-04-06T05:47:38.011Z,56.70
2019-04-06T05:50:07.613Z,56.50
2019-04-06T05:52:36.168Z,55.72
2019-04-06T05:55:05.979Z,54.12
2019-04-06T05:57:37.074Z,53.70
2019-04-06T06:00:09.737Z,54.52
2019-04-06T06:02:40.368Z,55.01
2019-04-06T06:05:08.570Z,56.00
2019-04-06T06:07:38.038Z,54.96
2019-04-06T06:10:07.859Z,54.96
2019-04-06T06:12:36.648Z,52.17
2019-04-06T06:15:07.858Z,51.47
2019-04-06T06:17:36.490Z,54.92
2019-04-06T06:20:07.190Z,53.03
2019-04-06T06:22:35.819Z,53.03
2019-04-06T06:25:06.580Z,55.00
2019-04-06T06:27:35.255Z,53.54
2019-04-06T06:30:05.630Z,53.39
2019-04-06T06:32:34.247Z,51.51
2019-04-06T06:35:02.916Z,51.02
2019-04-06T06:37:31.704Z,49.29
2019-04-06T06:40:00.275Z,53.66
2019-04-06T06:42:28.857Z,54.87
2019-04-06T06:44:57.476Z,54.70
2019-04-06T06:47:26.107Z,52.46
2019-04-06T06:49:54.764Z,53.34
2019-04-06T06:52:23.438Z,53.90
2019-04-06T06:54:52.018Z,52.84
2019-04-06T06:57:20.683Z,54.62
2019-04-06T06:59:49.304Z,53.93
2019-04-06T07:02:17.852Z,53.82
2019-04-06T07:04:46.456Z,54.69
2019-04-06T07:07:15.074Z,54.23
2019-04-06T07:09:43.699Z,51.57
2019-04-06T07:12:12.731Z,54.16
2019-04-06T07:14:41.428Z,53.06
2019-04-06T07:17:10.171Z,53.34
2019-04-06T07:19:38.772Z,53.96
2019-04-06T07:22:07.388Z,53.15
2019-04-06T07:24:36.022Z,51.99
2019-04-06T07:27:04.780Z,51.10
2019-04-06T07:29:33.411Z,50.02
2019-04-06T07:32:02.036Z,49.54
2019-04-06T07:34:30.708Z,49.06
2019-04-06T07:36:59.334Z,50.14
2019-04-06T07:39:27.970Z,49.41
2019-04-06T07:41:56.820Z,50.18
2019-04-06T07:44:25.497Z,49.49
2019-04-06T07:46:54.081Z,49.32
2019-04-06T07:49:22.753Z,48.65
2019-04-06T07:51:51.475Z,47.88
2019-04-06T07:54:20.092Z,48.80
2019-04-06T07:56:48.834Z,47.71
2019-04-06T07:59:17.399Z,47.81
2019-04-06T08:01:48.302Z,49.03
2019-04-06T08:04:16.405Z,49.99
2019-04-06T08:06:45.044Z,50.85
2019-04-06T08:09:13.677Z,49.91
2019-04-06T08:15:11.509Z,50.35
2019-04-06T08:17:40.076Z,49.02
2019-04-06T08:20:08.818Z,47.68
2019-04-06T08:22:37.486Z,48.49
2019-04-06T08:25:07.017Z,48.49
2019-04-06T08:27:35.656Z,47.70
2019-04-06T08:30:05.860Z,48.69
2019-04-06T08:32:34.481Z,48.28
2019-04-06T08:35:03.211Z,48.02
2019-04-06T08:37:31.876Z,47.13
2019-04-06T08:40:00.512Z,47.29
2019-04-06T08:42:29.000Z,47.44
2019-04-06T08:44:57.846Z,47.78
2019-04-06T08:47:26.645Z,45.79
2019-04-06T08:49:55.293Z,45.71
2019-04-06T08:52:23.998Z,44.55
2019-04-06T08:54:52.777Z,44.57
2019-04-06T08:57:22.868Z,44.76
2019-04-06T08:59:51.765Z,47.00
2019-04-06T09:02:20.791Z,44.76
2019-04-06T09:04:49.658Z,43.36
2019-04-06T09:07:18.339Z,43.98
2019-04-06T09:09:46.967Z,44.13
2019-04-06T09:12:16.205Z,43.59
2019-04-06T09:14:44.861Z,45.47
2019-04-06T09:17:13.485Z,45.39
2019-04-06T09:19:43.199Z,46.01
2019-04-06T09:22:11.790Z,45.80
2019-04-06T09:24:40.425Z,43.48
2019-04-06T09:27:08.994Z,43.94
2019-04-06T09:29:37.653Z,44.97
2019-04-06T09:32:06.309Z,45.13
2019-04-06T09:34:34.925Z,45.16
2019-04-06T09:37:03.588Z,44.55
2019-04-06T09:39:32.215Z,42.59
2019-04-06T09:42:00.842Z,42.20
2019-04-06T09:44:39.871Z,44.60
2019-04-06T09:47:10.278Z,44.94
2019-04-06T09:49:58.923Z,43.37
2019-04-06T09:52:29.178Z,43.93
2019-04-06T09:54:59.739Z,42.26
2019-04-06T09:57:35.788Z,43.90
2019-04-06T10:00:08.440Z,43.29
2019-04-06T10:02:44.590Z,43.94
2019-04-06T10:05:31.113Z,43.31
2019-04-06T10:08:17.733Z,42.33
2019-04-06T10:10:50.953Z,41.53
2019-04-06T10:13:30.009Z,43.43
2019-04-06T10:16:15.914Z,42.64
2019-04-06T10:18:49.300Z,39.96
2019-04-06T10:21:35.513Z,40.81
2019-04-06T10:24:05.806Z,41.25
2019-04-06T10:26:39.245Z,39.59
2019-04-06T10:29:12.713Z,39.95
2019-04-06T10:31:43.034Z,39.95
2019-04-06T10:34:29.255Z,41.26
2019-04-06T10:37:02.305Z,39.92
2019-04-06T10:39:38.757Z,40.15
2019-04-06T10:42:12.025Z,39.97
2019-04-06T10:44:58.620Z,39.62
2019-04-06T10:47:44.844Z,38.44
2019-04-06T10:50:30.010Z,38.72
2019-04-06T10:53:05.679Z,37.20
2019-04-06T10:55:44.707Z,36.45
2019-04-06T10:58:15.222Z,36.62
2019-04-06T11:01:01.845Z,35.56
2019-04-06T11:03:32.129Z,34.48
2019-04-06T11:06:02.409Z,34.68
2019-04-06T11:08:41.524Z,35.39
2019-04-06T11:11:20.787Z,35.74
2019-04-06T11:13:57.034Z,34.82
2019-04-06T11:16:27.296Z,35.91
2019-04-06T11:19:13.839Z,33.86
2019-04-06T11:21:47.102Z,33.33
2019-04-06T11:24:20.961Z,32.47
2019-04-06T11:26:51.288Z,32.00
2019-04-06T11:29:21.478Z,30.67
2019-04-06T11:32:07.731Z,29.37
2019-04-06T11:34:46.648Z,29.20
2019-04-06T11:37:22.900Z,30.96
2019-04-06T11:40:08.088Z,30.70
2019-04-06T11:42:47.281Z,32.00
2019-04-06T11:45:23.695Z,32.73
2019-04-06T11:47:59.781Z,32.50
2019-04-06T11:50:42.050Z,32.68
2019-04-06T11:53:18.035Z,32.44
2019-04-06T11:56:04.300Z,31.42
2019-04-06T11:58:37.342Z,31.09
2019-04-06T12:01:10.399Z,30.17
2019-04-06T12:03:52.687Z,29.58
2019-04-06T12:06:25.686Z,29.59
2019-04-06T12:09:08.177Z,30.30
2019-04-06T12:11:41.130Z,30.63
2019-04-06T12:14:17.369Z,29.59
2019-04-06T12:16:47.712Z,29.10
2019-04-06T12:19:17.945Z,28.96
2019-04-06T12:21:48.475Z,28.40
2019-04-06T12:24:36.890Z,28.62
2019-04-06T12:27:08.685Z,28.73
2019-04-06T12:29:50.786Z,28.89
2019-04-06T12:32:33.469Z,29.80
2019-04-06T12:35:03.699Z,30.18
2019-04-06T12:37:49.165Z,30.49
2019-04-06T12:40:31.486Z,29.71
2019-04-06T12:43:10.665Z,30.07
2019-04-06T12:45:40.927Z,30.15
2019-04-06T12:48:27.055Z,30.36
2019-04-06T12:51:00.558Z,29.81
2019-04-06T12:53:46.289Z,28.48
2019-04-06T12:56:16.729Z,28.99
2019-04-06T12:58:46.927Z,29.13
2019-04-06T13:01:20.345Z,29.25
2019-04-06T13:04:06.954Z,28.61
2019-04-06T13:06:49.183Z,28.45
2019-04-06T13:09:19.443Z,28.40
2019-04-06T13:12:02.032Z,28.92
2019-04-06T13:14:47.461Z,28.26
2019-04-06T13:17:35.704Z,27.66
2019-04-06T13:20:23.487Z,27.29
2019-04-06T13:23:08.974Z,27.43
2019-04-06T13:25:51.052Z,28.79
2019-04-06T13:28:34.474Z,28.33
2019-04-06T13:31:20.115Z,28.02
2019-04-06T13:34:05.365Z,27.69
2019-04-06T13:36:51.918Z,28.11
2019-04-06T13:39:25.155Z,28.80
2019-04-06T13:42:11.409Z,29.20
2019-04-06T13:44:41.732Z,29.31
2019-04-06T13:47:14.686Z,29.96
2019-04-06T13:49:47.752Z,29.77
2019-04-06T13:52:18.035Z,30.55
2019-04-06T13:54:54.055Z,29.32
2019-04-06T13:57:36.998Z,30.30
2019-04-06T14:00:09.244Z,30.17
2019-04-06T14:02:45.572Z,30.28
2019-04-06T14:05:24.970Z,29.38
2019-04-06T14:08:01.440Z,29.45
2019-04-06T14:10:37.883Z,30.48
2019-04-06T14:13:08.166Z,29.93
2019-04-06T14:15:38.359Z,29.50
2019-04-06T14:18:08.918Z,30.72
2019-04-06T14:20:55.042Z,29.88
2019-04-06T14:23:40.225Z,30.41
2019-04-06T14:26:22.258Z,29.40
2019-04-06T14:29:04.503Z,30.80
2019-04-06T14:31:50.774Z,31.75
2019-04-06T14:34:39.348Z,30.74
2019-04-06T14:37:18.400Z,30.98
2019-04-06T14:40:07.228Z,31.55
2019-04-06T14:42:53.646Z,31.95
2019-04-06T14:45:26.922Z,32.43
2019-04-06T14:47:57.182Z,32.18
2019-04-06T14:50:27.463Z,32.43
2019-04-06T14:53:12.919Z,33.38
2019-04-06T14:55:58.055Z,33.50
2019-04-06T14:58:44.694Z,34.11
2019-04-06T15:01:41.171Z,33.28
2019-04-06T15:04:18.261Z,33.44
2019-04-06T15:06:51.562Z,33.56
2019-04-06T15:09:37.853Z,34.35
2019-04-06T15:12:10.834Z,33.62
2019-04-06T15:14:44.059Z,33.16
2019-04-06T15:17:14.343Z,33.00
2019-04-06T15:19:44.689Z,32.92
2019-04-06T15:22:33.159Z,33.41
2019-04-06T15:25:03.418Z,33.99
2019-04-06T15:27:36.531Z,33.62
2019-04-06T15:30:25.795Z,34.16
2019-04-06T15:32:56.928Z,34.01
2019-04-06T15:35:33.013Z,33.04
2019-04-06T15:38:18.380Z,33.85
2019-04-06T15:40:54.764Z,32.68
2019-04-06T15:43:43.212Z,33.24
2019-04-06T15:46:16.323Z,34.31
2019-04-06T15:48:52.469Z,35.00
2019-04-06T15:51:31.681Z,35.28
2019-04-06T15:54:17.750Z,35.13
2019-04-06T15:56:50.931Z,35.26
2019-04-06T15:59:30.106Z,34.38
2019-04-06T16:02:03.445Z,34.26
2019-04-06T16:04:50.450Z,34.44
2019-04-06T16:07:33.633Z,36.00
2019-04-06T16:10:04.654Z,37.09
2019-04-06T16:12:37.677Z,35.11
2019-04-06T16:15:17.784Z,36.62
2019-04-06T16:17:53.767Z,37.02
2019-04-06T16:20:24.075Z,36.00
2019-04-06T16:23:03.057Z,36.36
2019-04-06T16:25:33.365Z,37.20
2019-04-06T16:28:07.051Z,36.22
2019-04-06T16:30:37.324Z,37.30
2019-04-06T16:33:16.250Z,36.47
2019-04-06T16:35:47.339Z,36.35
2019-04-06T16:38:32.842Z,35.81
2019-04-06T16:41:06.288Z,35.86
2019-04-06T16:43:36.567Z,37.00
2019-04-06T16:46:21.935Z,37.25
2019-04-06T16:48:55.113Z,36.80
2019-04-06T16:51:31.704Z,38.29
2019-04-06T16:54:20.105Z,38.82
2019-04-06T16:56:53.341Z,38.36
2019-04-06T16:59:32.215Z,38.63
2019-04-06T17:02:02.921Z,38.97
2019-04-06T17:04:36.200Z,39.22
2019-04-06T17:07:06.460Z,38.96
2019-04-06T17:09:48.963Z,39.76
2019-04-06T17:12:28.297Z,39.25
2019-04-06T17:15:07.597Z,43.14
2019-04-06T17:17:38.150Z,42.65
2019-04-06T17:20:17.941Z,42.68
2019-04-06T17:23:00.459Z,41.18
2019-04-06T17:25:33.272Z,42.55
2019-04-06T17:28:12.578Z,43.23
2019-04-06T17:30:48.882Z,42.01
2019-04-06T17:33:19.146Z,42.67
2019-04-06T17:35:52.103Z,43.02
2019-04-06T17:38:23.838Z,42.34
2019-04-06T17:40:54.140Z,44.80
2019-04-06T17:43:24.913Z,45.35
2019-04-06T17:45:55.191Z,45.57
2019-04-06T17:48:41.431Z,44.86
2019-04-06T17:51:11.734Z,45.45
2019-04-06T17:53:58.077Z,45.08
2019-04-06T17:56:43.250Z,46.12
2019-04-06T17:59:25.659Z,45.63
2019-04-06T18:02:02.178Z,45.61
2019-04-06T18:04:35.141Z,44.97
2019-04-06T18:07:08.382Z,45.38
2019-04-06T18:09:56.839Z,46.06
2019-04-06T18:12:30.133Z,44.99
2019-04-06T18:14:58.763Z,45.01
2019-04-06T18:17:28.110Z,45.34
2019-04-06T18:19:57.286Z,45.79
2019-04-06T18:22:25.943Z,44.05
2019-04-06T18:24:54.571Z,44.08
2019-04-06T18:27:23.370Z,43.59
2019-04-06T18:29:51.996Z,42.79
2019-04-06T18:32:24.884Z,42.03
2019-04-06T18:34:52.644Z,43.53
2019-04-06T18:37:22.916Z,44.85
2019-04-06T18:39:53.769Z,44.38
2019-04-06T18:42:22.996Z,43.35
2019-04-06T18:44:51.902Z,44.52
2019-04-06T18:47:20.949Z,44.06
2019-04-06T18:49:49.723Z,42.69
2019-04-06T18:52:18.338Z,42.24
2019-04-06T18:54:46.977Z,42.78
2019-04-06T18:57:16.028Z,43.45
2019-04-06T18:59:44.859Z,43.13
2019-04-06T19:02:13.446Z,42.91
2019-04-06T19:04:42.198Z,44.47
2019-04-06T19:07:10.926Z,45.32
2019-04-06T19:09:39.692Z,45.10
2019-04-06T19:12:08.363Z,44.20
2019-04-06T19:14:37.203Z,42.60
2019-04-06T19:17:06.258Z,42.51
2019-04-06T19:19:35.254Z,44.62
2019-04-06T19:22:03.945Z,44.98
2019-04-06T19:24:32.572Z,44.38
2019-04-06T19:27:01.152Z,44.35
2019-04-06T19:29:29.772Z,43.33
2019-04-06T19:31:58.946Z,42.66
2019-04-06T19:34:28.220Z,41.99
2019-04-06T19:36:56.875Z,42.88
2019-04-06T19:39:25.519Z,44.16
2019-04-06T19:41:55.044Z,45.30
2019-04-06T19:44:23.684Z,47.68
2019-04-06T19:46:52.896Z,46.65
2019-04-06T19:49:21.564Z,48.98
2019-04-06T19:51:50.196Z,48.31
2019-04-06T19:54:18.850Z,49.30
2019-04-06T19:56:47.658Z,49.27
2019-04-06T19:59:16.370Z,49.90
2019-04-06T20:01:44.944Z,49.08
2019-04-06T20:04:13.804Z,48.07
2019-04-06T20:06:42.409Z,48.48
2019-04-06T20:09:11.042Z,49.26
2019-04-06T20:11:40.061Z,51.17
2019-04-06T20:14:08.734Z,49.00
2019-04-06T20:16:37.368Z,48.02
2019-04-06T20:19:06.117Z,47.62
2019-04-06T20:21:34.758Z,46.11
2019-04-06T20:24:03.386Z,46.68
2019-04-06T20:26:32.709Z,49.34
2019-04-06T20:29:01.447Z,46.38
2019-04-06T20:31:30.504Z,46.79
2019-04-06T20:33:59.223Z,48.54
2019-04-06T20:36:28.764Z,48.69
2019-04-06T20:38:57.390Z,50.76
2019-04-06T20:41:26.062Z,48.88
2019-04-06T20:43:56.184Z,48.69
2019-04-06T20:46:24.857Z,48.00
2019-04-06T20:48:53.879Z,47.73
2019-04-06T20:51:22.644Z,48.75
2019-04-06T20:53:51.292Z,48.81
2019-04-06T20:56:19.967Z,48.07
2019-04-06T20:58:49.091Z,49.15
2019-04-06T21:01:17.707Z,47.67
2019-04-06T21:03:57.804Z,49.01
2019-04-06T21:06:16.918Z,50.13
2019-04-06T21:08:45.913Z,48.55
2019-04-06T21:11:15.105Z,48.63
2019-04-06T21:13:43.711Z,47.18
2019-04-06T21:16:12.490Z,47.87
2019-04-06T21:18:41.276Z,48.23
2019-04-06T21:21:10.911Z,47.83
2019-04-06T21:23:39.656Z,47.44
2019-04-06T21:26:08.320Z,47.92
2019-04-06T21:28:36.957Z,48.90
2019-04-06T21:31:05.596Z,50.90
2019-04-06T21:33:34.260Z,51.18
2019-04-06T21:36:03.253Z,50.38
2019-04-06T21:38:32.183Z,48.13
2019-04-06T21:41:00.797Z,47.82
2019-04-06T21:43:29.927Z,48.97
2019-04-06T21:45:59.370Z,47.80
2019-04-06T21:48:28.047Z,48.16
2019-04-06T21:50:57.250Z,47.52
2019-04-06T21:53:25.878Z,48.61
2019-04-06T21:56:02.659Z,47.41
2019-04-06T21:58:25.490Z,47.55
2019-04-06T22:00:55.766Z,47.78
2019-04-06T22:03:24.428Z,47.90
2019-04-06T22:05:53.264Z,49.13
2019-04-06T22:08:21.864Z,51.08
2019-04-06T22:10:50.535Z,50.77
2019-04-06T22:13:19.532Z,49.50
2019-04-06T22:15:48.229Z,47.86
2019-04-06T22:18:17.133Z,48.40
2019-04-06T22:20:45.734Z,47.85
2019-04-06T22:23:14.362Z,49.13
2019-04-06T22:25:43.572Z,49.04
2019-04-06T22:28:12.235Z,47.81
2019-04-06T22:30:41.707Z,47.73
2019-04-06T22:33:10.385Z,48.33
2019-04-06T22:35:39.018Z,48.49
2019-04-06T22:38:08.095Z,47.41
2019-04-06T22:40:37.056Z,47.04
2019-04-06T22:43:05.786Z,47.30
2019-04-06T22:45:34.988Z,47.41
2019-04-06T22:48:04.602Z,47.17
2019-04-06T22:50:33.782Z,46.17
2019-04-06T22:53:02.646Z,46.20
2019-04-06T22:55:31.314Z,46.34
2019-04-06T22:57:59.930Z,45.98
2019-04-06T23:00:30.506Z,45.71
2019-04-06T23:03:09.643Z,45.77
2019-04-06T23:05:46.079Z,46.20
2019-04-06T23:08:14.739Z,46.06
2019-04-06T23:10:43.384Z,46.53
2019-04-06T23:13:12.287Z,46.05
2019-04-06T23:15:41.046Z,47.06
2019-04-06T23:18:10.397Z,47.48
2019-04-06T23:20:39.103Z,47.48
2019-04-06T23:23:07.849Z,47.73
2019-04-06T23:25:37.186Z,47.12
2019-04-06T23:28:05.908Z,48.61
2019-04-06T23:30:34.620Z,48.00
2019-04-06T23:33:03.849Z,47.44
2019-04-06T23:35:32.460Z,46.53
2019-04-06T23:38:01.129Z,46.29
2019-04-06T23:40:29.766Z,46.40
2019-04-06T23:42:58.406Z,46.19
2019-04-06T23:45:27.091Z,46.66
2019-04-06T23:47:55.897Z,46.36
2019-04-06T23:50:24.539Z,45.95
2019-04-06T23:52:53.340Z,45.85
2019-04-06T23:55:21.954Z,45.22
2019-04-06T23:57:51.043Z,45.25
